This is the latest recevied weather packets stored in our database for station/object KH2PM. If no packets are shown the sender has not sent any weather packets the latest 10 day(s).
| Time | Temp. | Humidity | Pressure | Rain* | Wind** | Luminosity | Snow |
|---|---|---|---|---|---|---|---|
| 1778043605 | 17.78° C | 77% | 1015.9 hPa | 0 mm | - | - | - |
| 1778036104 | 19.44° C | 69% | 1016.5 hPa | 0 mm | - | - | - |
| 1778035804 | 19.44° C | 69% | 1016.5 hPa | 0 mm | - | - | - |
| 1778034305 | 20° C | 67% | 1016.4 hPa | 0 mm | - | - | - |
| 1778032204 | 20.56° C | 64% | 1016 hPa | 0 mm | - | - | - |
| 1778030404 | 21.67° C | 61% | 1015.7 hPa | 0 mm | - | - | - |
| 1778028604 | 22.22° C | 58% | 1015.2 hPa | 0 mm | - | - | - |
| 1778028004 | 22.22° C | 57% | 1015.1 hPa | 0 mm | - | - | - |
| 1778027705 | 22.78° C | 56% | 1015 hPa | 0 mm | - | - | - |
| 1778027404 | 22.78° C | 55% | 1014.9 hPa | 0 mm | - | - | - |
| 1778027104 | 22.78° C | 55% | 1014.7 hPa | 0 mm | - | - | - |
| 1778024404 | 24.44° C | 50% | 1014.3 hPa | 0 mm | - | - | - |
| 1778023204 | 24.44° C | 46% | 1014.1 hPa | 0 mm | - | - | - |
| 1778019305 | 26.11° C | 43% | 1014.6 hPa | 0 mm | - | - | - |
| 1778018104 | 27.22° C | 42% | 1014.7 hPa | 0 mm | - | - | - |
| 1778015105 | 27.78° C | 40% | 1014.7 hPa | 0 mm | - | - | - |
| 1778013304 | 27.78° C | 41% | 1014.8 hPa | 0 mm | - | - | - |
| 1778010603 | 27.78° C | 42% | 1015.3 hPa | 0 mm | - | - | - |
| 1778009704 | 27.22° C | 42% | 1015.6 hPa | 0 mm | - | - | - |
| 1778009104 | 27.22° C | 41% | 1015.8 hPa | 0 mm | - | - | - |
| 1778007904 | 27.78° C | 40% | 1016.1 hPa | 0 mm | - | - | - |
| 1778006704 | 27.78° C | 41% | 1016.3 hPa | 0 mm | - | - | - |
| 1778004904 | 26.67° C | 44% | 1016.5 hPa | 0 mm | - | - | - |
| 1778003404 | 27.22° C | 42% | 1016.6 hPa | 0 mm | - | - | - |
| 1778001605 | 27.22° C | 41% | 1016.9 hPa | 0 mm | - | - | - |
* Rain latest hour (hover to see other rain measurements)
** Current wind speed in m/s (hover to see current wind gust speed)